sensor_id;sensor_type;location;lat;lon;timestamp;P1;durP1;ratioP1;P2;durP2;ratioP2
71196;SDS011;58918;51.652;4.864;2024-01-30T00:01:54;5.13;;;2.33;;
71196;SDS011;58918;51.652;4.864;2024-01-30T00:04:22;5.95;;;2.47;;
71196;SDS011;58918;51.652;4.864;2024-01-30T00:06:50;6.95;;;2.28;;
71196;SDS011;58918;51.652;4.864;2024-01-30T00:09:19;5.43;;;1.95;;
71196;SDS011;58918;51.652;4.864;2024-01-30T00:11:46;5.90;;;2.40;;
71196;SDS011;58918;51.652;4.864;2024-01-30T00:14:13;5.38;;;2.33;;
71196;SDS011;58918;51.652;4.864;2024-01-30T00:16:40;4.45;;;2.10;;
71196;SDS011;58918;51.652;4.864;2024-01-30T00:19:08;7.32;;;2.40;;
71196;SDS011;58918;51.652;4.864;2024-01-30T00:21:35;5.40;;;2.40;;
71196;SDS011;58918;51.652;4.864;2024-01-30T00:24:02;5.35;;;2.50;;
71196;SDS011;58918;51.652;4.864;2024-01-30T00:26:30;5.35;;;2.45;;
71196;SDS011;58918;51.652;4.864;2024-01-30T00:28:57;6.28;;;2.72;;
71196;SDS011;58918;51.652;4.864;2024-01-30T00:31:25;5.72;;;2.28;;
71196;SDS011;58918;51.652;4.864;2024-01-30T00:33:52;4.90;;;2.20;;
71196;SDS011;58918;51.652;4.864;2024-01-30T00:36:19;5.38;;;2.00;;
71196;SDS011;58918;51.652;4.864;2024-01-30T00:38:47;4.28;;;2.03;;
71196;SDS011;58918;51.652;4.864;2024-01-30T00:41:18;6.40;;;2.10;;
71196;SDS011;58918;51.652;4.864;2024-01-30T00:43:45;5.68;;;2.22;;
71196;SDS011;58918;51.652;4.864;2024-01-30T00:46:13;4.55;;;2.03;;
71196;SDS011;58918;51.652;4.864;2024-01-30T00:48:40;5.53;;;2.58;;
71196;SDS011;58918;51.652;4.864;2024-01-30T00:51:07;5.38;;;1.95;;
71196;SDS011;58918;51.652;4.864;2024-01-30T00:53:35;4.22;;;1.90;;
71196;SDS011;58918;51.652;4.864;2024-01-30T00:56:02;4.63;;;1.98;;
71196;SDS011;58918;51.652;4.864;2024-01-30T00:58:29;4.15;;;1.92;;
71196;SDS011;58918;51.652;4.864;2024-01-30T01:00:57;4.45;;;1.83;;
71196;SDS011;58918;51.652;4.864;2024-01-30T01:03:24;4.40;;;2.15;;
71196;SDS011;58918;51.652;4.864;2024-01-30T01:05:51;6.05;;;2.25;;
71196;SDS011;58918;51.652;4.864;2024-01-30T01:08:18;4.32;;;2.05;;
71196;SDS011;58918;51.652;4.864;2024-01-30T01:10:46;9.15;;;2.10;;
71196;SDS011;58918;51.652;4.864;2024-01-30T01:13:13;4.57;;;1.95;;
71196;SDS011;58918;51.652;4.864;2024-01-30T01:15:41;4.47;;;2.08;;
71196;SDS011;58918;51.652;4.864;2024-01-30T01:18:08;5.28;;;2.00;;
71196;SDS011;58918;51.652;4.864;2024-01-30T01:20:35;4.60;;;2.20;;
71196;SDS011;58918;51.652;4.864;2024-01-30T01:23:02;4.00;;;1.95;;
71196;SDS011;58918;51.652;4.864;2024-01-30T01:25:30;4.95;;;2.17;;
71196;SDS011;58918;51.652;4.864;2024-01-30T01:27:57;5.22;;;2.15;;
71196;SDS011;58918;51.652;4.864;2024-01-30T01:30:25;5.57;;;1.98;;
71196;SDS011;58918;51.652;4.864;2024-01-30T01:32:52;5.10;;;2.25;;
71196;SDS011;58918;51.652;4.864;2024-01-30T01:35:24;5.03;;;2.40;;
71196;SDS011;58918;51.652;4.864;2024-01-30T01:37:51;4.93;;;2.13;;
71196;SDS011;58918;51.652;4.864;2024-01-30T01:40:22;4.05;;;1.73;;
71196;SDS011;58918;51.652;4.864;2024-01-30T01:42:50;4.85;;;2.00;;
71196;SDS011;58918;51.652;4.864;2024-01-30T01:45:21;6.18;;;2.30;;
71196;SDS011;58918;51.652;4.864;2024-01-30T01:47:51;5.05;;;2.10;;
71196;SDS011;58918;51.652;4.864;2024-01-30T01:50:19;4.85;;;2.08;;
71196;SDS011;58918;51.652;4.864;2024-01-30T01:52:47;4.45;;;1.67;;
71196;SDS011;58918;51.652;4.864;2024-01-30T01:55:15;4.57;;;2.03;;
71196;SDS011;58918;51.652;4.864;2024-01-30T01:57:44;4.85;;;2.08;;
71196;SDS011;58918;51.652;4.864;2024-01-30T02:00:12;14.70;;;2.10;;
71196;SDS011;58918;51.652;4.864;2024-01-30T02:02:40;3.72;;;1.90;;
71196;SDS011;58918;51.652;4.864;2024-01-30T02:05:08;4.25;;;1.80;;
71196;SDS011;58918;51.652;4.864;2024-01-30T02:07:35;4.82;;;2.13;;
71196;SDS011;58918;51.652;4.864;2024-01-30T02:10:03;4.88;;;2.10;;
71196;SDS011;58918;51.652;4.864;2024-01-30T02:12:30;4.93;;;2.42;;
71196;SDS011;58918;51.652;4.864;2024-01-30T02:14:57;4.80;;;1.90;;
71196;SDS011;58918;51.652;4.864;2024-01-30T02:17:25;5.55;;;1.90;;
71196;SDS011;58918;51.652;4.864;2024-01-30T02:19:52;6.43;;;1.77;;
71196;SDS011;58918;51.652;4.864;2024-01-30T02:22:20;5.47;;;1.98;;
71196;SDS011;58918;51.652;4.864;2024-01-30T02:24:47;5.20;;;1.98;;
71196;SDS011;58918;51.652;4.864;2024-01-30T02:27:15;4.75;;;1.92;;
71196;SDS011;58918;51.652;4.864;2024-01-30T02:29:42;4.60;;;1.83;;
71196;SDS011;58918;51.652;4.864;2024-01-30T02:32:09;4.88;;;2.30;;
71196;SDS011;58918;51.652;4.864;2024-01-30T02:34:36;4.22;;;2.00;;
71196;SDS011;58918;51.652;4.864;2024-01-30T02:37:04;4.57;;;1.75;;
71196;SDS011;58918;51.652;4.864;2024-01-30T02:39:31;4.40;;;1.80;;
71196;SDS011;58918;51.652;4.864;2024-01-30T02:41:58;4.43;;;2.08;;
71196;SDS011;58918;51.652;4.864;2024-01-30T02:44:26;4.50;;;1.90;;
71196;SDS011;58918;51.652;4.864;2024-01-30T02:46:53;4.53;;;1.92;;
71196;SDS011;58918;51.652;4.864;2024-01-30T02:49:21;4.03;;;1.75;;
71196;SDS011;58918;51.652;4.864;2024-01-30T02:51:48;5.93;;;2.17;;
71196;SDS011;58918;51.652;4.864;2024-01-30T02:54:19;7.25;;;2.10;;
71196;SDS011;58918;51.652;4.864;2024-01-30T02:56:46;4.28;;;2.20;;
71196;SDS011;58918;51.652;4.864;2024-01-30T02:59:14;4.75;;;2.10;;
71196;SDS011;58918;51.652;4.864;2024-01-30T03:01:42;5.35;;;2.00;;
71196;SDS011;58918;51.652;4.864;2024-01-30T03:04:10;3.97;;;1.83;;
71196;SDS011;58918;51.652;4.864;2024-01-30T03:06:38;5.30;;;1.90;;
71196;SDS011;58918;51.652;4.864;2024-01-30T03:09:05;4.95;;;2.08;;
71196;SDS011;58918;51.652;4.864;2024-01-30T03:11:32;3.85;;;1.80;;
71196;SDS011;58918;51.652;4.864;2024-01-30T03:13:59;4.03;;;1.80;;
71196;SDS011;58918;51.652;4.864;2024-01-30T03:16:26;4.28;;;1.63;;
71196;SDS011;58918;51.652;4.864;2024-01-30T03:18:54;3.97;;;1.85;;
71196;SDS011;58918;51.652;4.864;2024-01-30T03:21:21;4.25;;;2.03;;
71196;SDS011;58918;51.652;4.864;2024-01-30T03:23:48;4.75;;;1.70;;
71196;SDS011;58918;51.652;4.864;2024-01-30T03:26:15;5.15;;;2.20;;
71196;SDS011;58918;51.652;4.864;2024-01-30T03:28:43;5.15;;;1.95;;
71196;SDS011;58918;51.652;4.864;2024-01-30T03:31:10;5.93;;;2.17;;
71196;SDS011;58918;51.652;4.864;2024-01-30T03:33:37;4.28;;;2.00;;
71196;SDS011;58918;51.652;4.864;2024-01-30T03:36:05;4.40;;;1.77;;
71196;SDS011;58918;51.652;4.864;2024-01-30T03:38:32;4.03;;;1.70;;
71196;SDS011;58918;51.652;4.864;2024-01-30T03:40:59;5.20;;;2.00;;
71196;SDS011;58918;51.652;4.864;2024-01-30T03:43:27;4.15;;;1.73;;
71196;SDS011;58918;51.652;4.864;2024-01-30T03:45:54;3.92;;;2.10;;
71196;SDS011;58918;51.652;4.864;2024-01-30T03:48:21;3.90;;;1.70;;
71196;SDS011;58918;51.652;4.864;2024-01-30T03:50:48;4.88;;;2.05;;
71196;SDS011;58918;51.652;4.864;2024-01-30T03:53:17;5.45;;;2.10;;
71196;SDS011;58918;51.652;4.864;2024-01-30T03:55:44;5.07;;;1.80;;
71196;SDS011;58918;51.652;4.864;2024-01-30T03:58:11;4.80;;;2.00;;
71196;SDS011;58918;51.652;4.864;2024-01-30T04:00:38;4.18;;;1.92;;
71196;SDS011;58918;51.652;4.864;2024-01-30T04:03:07;4.07;;;1.70;;
71196;SDS011;58918;51.652;4.864;2024-01-30T04:05:34;5.82;;;1.60;;
71196;SDS011;58918;51.652;4.864;2024-01-30T04:08:01;4.25;;;1.52;;
71196;SDS011;58918;51.652;4.864;2024-01-30T04:10:29;4.03;;;1.90;;
71196;SDS011;58918;51.652;4.864;2024-01-30T04:12:56;4.35;;;2.00;;
71196;SDS011;58918;51.652;4.864;2024-01-30T04:15:23;4.10;;;1.77;;
71196;SDS011;58918;51.652;4.864;2024-01-30T04:17:50;4.80;;;1.92;;
71196;SDS011;58918;51.652;4.864;2024-01-30T04:20:18;4.10;;;2.05;;
71196;SDS011;58918;51.652;4.864;2024-01-30T04:22:45;4.00;;;1.60;;
71196;SDS011;58918;51.652;4.864;2024-01-30T04:25:13;5.47;;;1.92;;
71196;SDS011;58918;51.652;4.864;2024-01-30T04:27:40;5.10;;;1.90;;
71196;SDS011;58918;51.652;4.864;2024-01-30T04:30:08;3.78;;;1.55;;
71196;SDS011;58918;51.652;4.864;2024-01-30T04:32:36;4.18;;;1.83;;
71196;SDS011;58918;51.652;4.864;2024-01-30T04:35:03;3.60;;;1.70;;
71196;SDS011;58918;51.652;4.864;2024-01-30T04:37:36;4.15;;;1.65;;
71196;SDS011;58918;51.652;4.864;2024-01-30T04:40:04;4.95;;;2.20;;
71196;SDS011;58918;51.652;4.864;2024-01-30T04:42:31;3.65;;;1.75;;
71196;SDS011;58918;51.652;4.864;2024-01-30T04:44:59;4.18;;;1.85;;
71196;SDS011;58918;51.652;4.864;2024-01-30T04:47:26;3.95;;;1.73;;
71196;SDS011;58918;51.652;4.864;2024-01-30T04:49:53;3.58;;;1.60;;
71196;SDS011;58918;51.652;4.864;2024-01-30T04:52:20;4.85;;;2.00;;
71196;SDS011;58918;51.652;4.864;2024-01-30T04:54:48;6.80;;;2.17;;
71196;SDS011;58918;51.652;4.864;2024-01-30T04:57:15;4.97;;;1.80;;
71196;SDS011;58918;51.652;4.864;2024-01-30T04:59:42;4.65;;;1.80;;
71196;SDS011;58918;51.652;4.864;2024-01-30T05:02:09;4.47;;;1.80;;
71196;SDS011;58918;51.652;4.864;2024-01-30T05:04:37;3.78;;;1.70;;
71196;SDS011;58918;51.652;4.864;2024-01-30T05:07:04;4.15;;;1.70;;
71196;SDS011;58918;51.652;4.864;2024-01-30T05:09:32;3.72;;;1.65;;
71196;SDS011;58918;51.652;4.864;2024-01-30T05:11:59;4.50;;;1.83;;
71196;SDS011;58918;51.652;4.864;2024-01-30T05:14:26;3.72;;;1.63;;
71196;SDS011;58918;51.652;4.864;2024-01-30T05:16:53;4.82;;;1.58;;
71196;SDS011;58918;51.652;4.864;2024-01-30T05:19:20;4.28;;;1.70;;
71196;SDS011;58918;51.652;4.864;2024-01-30T05:21:49;4.80;;;1.98;;
71196;SDS011;58918;51.652;4.864;2024-01-30T05:24:17;3.78;;;1.60;;
71196;SDS011;58918;51.652;4.864;2024-01-30T05:26:46;5.93;;;2.13;;
71196;SDS011;58918;51.652;4.864;2024-01-30T05:29:14;4.35;;;1.75;;
71196;SDS011;58918;51.652;4.864;2024-01-30T05:31:41;4.85;;;2.00;;
71196;SDS011;58918;51.652;4.864;2024-01-30T05:34:08;5.55;;;2.00;;
71196;SDS011;58918;51.652;4.864;2024-01-30T05:36:36;3.47;;;1.42;;
71196;SDS011;58918;51.652;4.864;2024-01-30T05:39:03;6.30;;;2.30;;
71196;SDS011;58918;51.652;4.864;2024-01-30T05:41:34;6.10;;;1.77;;
71196;SDS011;58918;51.652;4.864;2024-01-30T05:44:01;7.95;;;1.65;;
71196;SDS011;58918;51.652;4.864;2024-01-30T05:46:28;12.90;;;2.20;;
71196;SDS011;58918;51.652;4.864;2024-01-30T05:48:56;8.43;;;2.10;;
71196;SDS011;58918;51.652;4.864;2024-01-30T05:51:23;4.72;;;1.65;;
71196;SDS011;58918;51.652;4.864;2024-01-30T05:53:50;6.05;;;1.88;;
71196;SDS011;58918;51.652;4.864;2024-01-30T05:56:17;7.43;;;2.10;;
71196;SDS011;58918;51.652;4.864;2024-01-30T05:58:44;9.63;;;1.73;;
71196;SDS011;58918;51.652;4.864;2024-01-30T06:01:12;7.68;;;1.70;;
71196;SDS011;58918;51.652;4.864;2024-01-30T06:03:40;5.00;;;1.90;;
71196;SDS011;58918;51.652;4.864;2024-01-30T06:06:09;5.05;;;1.80;;
71196;SDS011;58918;51.652;4.864;2024-01-30T06:08:37;5.07;;;1.70;;
71196;SDS011;58918;51.652;4.864;2024-01-30T06:11:04;4.88;;;1.73;;
71196;SDS011;58918;51.652;4.864;2024-01-30T06:13:31;5.55;;;1.75;;
71196;SDS011;58918;51.652;4.864;2024-01-30T06:15:59;6.15;;;1.63;;
71196;SDS011;58918;51.652;4.864;2024-01-30T06:18:26;6.28;;;1.85;;
71196;SDS011;58918;51.652;4.864;2024-01-30T06:20:55;5.53;;;1.70;;
71196;SDS011;58918;51.652;4.864;2024-01-30T06:23:22;4.43;;;1.55;;
71196;SDS011;58918;51.652;4.864;2024-01-30T06:25:50;4.38;;;1.52;;
71196;SDS011;58918;51.652;4.864;2024-01-30T06:28:17;4.13;;;1.67;;
71196;SDS011;58918;51.652;4.864;2024-01-30T06:30:45;3.85;;;1.40;;
71196;SDS011;58918;51.652;4.864;2024-01-30T06:33:12;6.90;;;1.67;;
71196;SDS011;58918;51.652;4.864;2024-01-30T06:35:40;4.55;;;1.63;;
71196;SDS011;58918;51.652;4.864;2024-01-30T06:38:10;3.25;;;1.42;;
71196;SDS011;58918;51.652;4.864;2024-01-30T06:40:37;4.72;;;1.92;;
71196;SDS011;58918;51.652;4.864;2024-01-30T06:43:07;4.35;;;1.48;;
71196;SDS011;58918;51.652;4.864;2024-01-30T06:45:36;3.97;;;1.50;;
71196;SDS011;58918;51.652;4.864;2024-01-30T06:48:04;4.70;;;1.70;;
71196;SDS011;58918;51.652;4.864;2024-01-30T06:50:31;5.63;;;1.98;;
71196;SDS011;58918;51.652;4.864;2024-01-30T06:52:59;5.05;;;1.60;;
71196;SDS011;58918;51.652;4.864;2024-01-30T06:55:26;3.90;;;1.63;;
71196;SDS011;58918;51.652;4.864;2024-01-30T06:58:01;4.38;;;1.65;;
71196;SDS011;58918;51.652;4.864;2024-01-30T07:00:29;5.32;;;1.88;;
71196;SDS011;58918;51.652;4.864;2024-01-30T07:02:57;3.88;;;1.60;;
71196;SDS011;58918;51.652;4.864;2024-01-30T07:05:25;5.55;;;1.67;;
71196;SDS011;58918;51.652;4.864;2024-01-30T07:07:52;5.28;;;2.15;;
71196;SDS011;58918;51.652;4.864;2024-01-30T07:10:20;5.65;;;1.50;;
71196;SDS011;58918;51.652;4.864;2024-01-30T07:12:48;4.30;;;1.55;;
71196;SDS011;58918;51.652;4.864;2024-01-30T07:15:18;3.75;;;1.90;;
71196;SDS011;58918;51.652;4.864;2024-01-30T07:17:49;4.38;;;1.75;;
71196;SDS011;58918;51.652;4.864;2024-01-30T07:20:18;5.22;;;1.70;;
71196;SDS011;58918;51.652;4.864;2024-01-30T07:22:47;3.47;;;1.40;;
71196;SDS011;58918;51.652;4.864;2024-01-30T07:25:14;5.18;;;1.88;;
71196;SDS011;58918;51.652;4.864;2024-01-30T07:27:43;5.10;;;1.85;;
71196;SDS011;58918;51.652;4.864;2024-01-30T07:30:11;4.07;;;1.48;;
71196;SDS011;58918;51.652;4.864;2024-01-30T07:32:39;4.10;;;1.58;;
71196;SDS011;58918;51.652;4.864;2024-01-30T07:35:06;3.70;;;1.45;;
71196;SDS011;58918;51.652;4.864;2024-01-30T07:37:35;3.35;;;1.38;;
71196;SDS011;58918;51.652;4.864;2024-01-30T07:40:03;3.92;;;1.80;;
71196;SDS011;58918;51.652;4.864;2024-01-30T07:42:30;4.50;;;1.80;;
71196;SDS011;58918;51.652;4.864;2024-01-30T07:44:58;5.05;;;1.92;;
71196;SDS011;58918;51.652;4.864;2024-01-30T07:47:25;4.25;;;1.80;;
71196;SDS011;58918;51.652;4.864;2024-01-30T07:50:02;4.47;;;1.60;;
71196;SDS011;58918;51.652;4.864;2024-01-30T07:52:30;5.15;;;1.65;;
71196;SDS011;58918;51.652;4.864;2024-01-30T07:54:59;3.85;;;1.52;;
71196;SDS011;58918;51.652;4.864;2024-01-30T07:57:38;5.78;;;1.80;;
71196;SDS011;58918;51.652;4.864;2024-01-30T08:00:06;4.68;;;1.70;;
71196;SDS011;58918;51.652;4.864;2024-01-30T08:02:33;5.22;;;1.85;;
71196;SDS011;58918;51.652;4.864;2024-01-30T08:05:01;4.80;;;1.73;;
71196;SDS011;58918;51.652;4.864;2024-01-30T08:07:30;4.20;;;1.40;;
71196;SDS011;58918;51.652;4.864;2024-01-30T08:09:57;4.07;;;1.65;;
71196;SDS011;58918;51.652;4.864;2024-01-30T08:12:24;4.70;;;1.88;;
71196;SDS011;58918;51.652;4.864;2024-01-30T08:15:00;3.75;;;1.45;;
71196;SDS011;58918;51.652;4.864;2024-01-30T08:17:28;4.45;;;1.92;;
71196;SDS011;58918;51.652;4.864;2024-01-30T08:19:55;4.50;;;1.73;;
71196;SDS011;58918;51.652;4.864;2024-01-30T08:22:24;3.65;;;1.55;;
71196;SDS011;58918;51.652;4.864;2024-01-30T08:24:51;5.15;;;1.83;;
71196;SDS011;58918;51.652;4.864;2024-01-30T08:27:19;4.45;;;1.60;;
71196;SDS011;58918;51.652;4.864;2024-01-30T08:29:48;3.42;;;1.40;;
71196;SDS011;58918;51.652;4.864;2024-01-30T08:32:34;4.47;;;1.50;;
71196;SDS011;58918;51.652;4.864;2024-01-30T08:35:03;3.95;;;1.58;;
71196;SDS011;58918;51.652;4.864;2024-01-30T08:37:36;4.75;;;1.75;;
71196;SDS011;58918;51.652;4.864;2024-01-30T08:40:18;4.07;;;1.88;;
71196;SDS011;58918;51.652;4.864;2024-01-30T08:42:48;4.25;;;1.83;;
71196;SDS011;58918;51.652;4.864;2024-01-30T08:45:15;4.35;;;1.60;;
71196;SDS011;58918;51.652;4.864;2024-01-30T08:47:47;4.38;;;1.80;;
71196;SDS011;58918;51.652;4.864;2024-01-30T08:50:15;5.45;;;1.95;;
71196;SDS011;58918;51.652;4.864;2024-01-30T08:52:43;5.13;;;2.05;;
71196;SDS011;58918;51.652;4.864;2024-01-30T08:55:12;5.45;;;1.58;;
71196;SDS011;58918;51.652;4.864;2024-01-30T08:57:40;3.97;;;1.58;;
71196;SDS011;58918;51.652;4.864;2024-01-30T09:00:10;3.75;;;1.33;;
71196;SDS011;58918;51.652;4.864;2024-01-30T09:02:41;4.13;;;1.70;;
71196;SDS011;58918;51.652;4.864;2024-01-30T09:05:29;3.97;;;1.67;;
71196;SDS011;58918;51.652;4.864;2024-01-30T09:07:57;5.75;;;1.70;;
71196;SDS011;58918;51.652;4.864;2024-01-30T09:10:24;4.68;;;2.03;;
71196;SDS011;58918;51.652;4.864;2024-01-30T09:12:52;5.90;;;1.92;;
71196;SDS011;58918;51.652;4.864;2024-01-30T09:15:19;6.80;;;1.63;;
71196;SDS011;58918;51.652;4.864;2024-01-30T09:17:51;4.85;;;1.70;;
71196;SDS011;58918;51.652;4.864;2024-01-30T09:20:19;5.32;;;1.80;;
71196;SDS011;58918;51.652;4.864;2024-01-30T09:22:49;4.35;;;1.70;;
71196;SDS011;58918;51.652;4.864;2024-01-30T09:25:16;3.90;;;1.42;;
71196;SDS011;58918;51.652;4.864;2024-01-30T09:30:12;4.00;;;1.55;;
71196;SDS011;58918;51.652;4.864;2024-01-30T09:32:40;4.82;;;1.60;;
71196;SDS011;58918;51.652;4.864;2024-01-30T09:35:13;4.03;;;1.40;;
71196;SDS011;58918;51.652;4.864;2024-01-30T09:37:41;4.43;;;1.85;;
71196;SDS011;58918;51.652;4.864;2024-01-30T09:40:11;4.03;;;1.52;;
71196;SDS011;58918;51.652;4.864;2024-01-30T09:42:38;4.80;;;1.52;;
71196;SDS011;58918;51.652;4.864;2024-01-30T09:45:08;4.05;;;1.52;;
71196;SDS011;58918;51.652;4.864;2024-01-30T09:47:45;3.72;;;1.45;;
71196;SDS011;58918;51.652;4.864;2024-01-30T09:50:17;3.88;;;1.60;;
71196;SDS011;58918;51.652;4.864;2024-01-30T09:52:46;4.47;;;1.70;;
71196;SDS011;58918;51.652;4.864;2024-01-30T09:55:29;4.15;;;1.55;;
71196;SDS011;58918;51.652;4.864;2024-01-30T09:58:03;4.25;;;1.52;;
71196;SDS011;58918;51.652;4.864;2024-01-30T10:00:30;4.32;;;1.60;;
71196;SDS011;58918;51.652;4.864;2024-01-30T10:02:59;6.10;;;1.60;;
71196;SDS011;58918;51.652;4.864;2024-01-30T10:05:28;4.15;;;1.60;;
71196;SDS011;58918;51.652;4.864;2024-01-30T10:08:17;5.07;;;1.85;;
71196;SDS011;58918;51.652;4.864;2024-01-30T10:10:53;4.03;;;1.77;;
71196;SDS011;58918;51.652;4.864;2024-01-30T10:13:25;3.75;;;1.38;;
71196;SDS011;58918;51.652;4.864;2024-01-30T10:15:52;5.85;;;1.67;;
71196;SDS011;58918;51.652;4.864;2024-01-30T10:18:24;3.65;;;1.40;;
71196;SDS011;58918;51.652;4.864;2024-01-30T10:20:51;3.83;;;1.65;;
71196;SDS011;58918;51.652;4.864;2024-01-30T10:23:18;4.50;;;1.67;;
71196;SDS011;58918;51.652;4.864;2024-01-30T10:25:46;4.07;;;1.45;;
71196;SDS011;58918;51.652;4.864;2024-01-30T10:28:14;3.95;;;1.48;;
71196;SDS011;58918;51.652;4.864;2024-01-30T10:30:41;3.55;;;1.20;;
71196;SDS011;58918;51.652;4.864;2024-01-30T10:33:09;4.05;;;1.48;;
71196;SDS011;58918;51.652;4.864;2024-01-30T10:35:36;4.18;;;1.33;;
71196;SDS011;58918;51.652;4.864;2024-01-30T10:38:05;5.82;;;1.48;;
71196;SDS011;58918;51.652;4.864;2024-01-30T10:40:35;3.92;;;1.60;;
71196;SDS011;58918;51.652;4.864;2024-01-30T10:43:20;3.92;;;1.30;;
71196;SDS011;58918;51.652;4.864;2024-01-30T10:45:49;3.50;;;1.58;;
71196;SDS011;58918;51.652;4.864;2024-01-30T10:48:16;4.00;;;1.50;;
71196;SDS011;58918;51.652;4.864;2024-01-30T10:50:48;3.78;;;1.40;;
71196;SDS011;58918;51.652;4.864;2024-01-30T10:53:26;3.78;;;1.40;;
71196;SDS011;58918;51.652;4.864;2024-01-30T10:55:57;3.53;;;1.60;;
71196;SDS011;58918;51.652;4.864;2024-01-30T10:58:25;3.72;;;1.60;;
71196;SDS011;58918;51.652;4.864;2024-01-30T11:00:55;4.18;;;1.60;;
71196;SDS011;58918;51.652;4.864;2024-01-30T11:03:23;6.00;;;1.40;;
71196;SDS011;58918;51.652;4.864;2024-01-30T11:05:51;4.00;;;1.63;;
71196;SDS011;58918;51.652;4.864;2024-01-30T11:08:22;4.00;;;1.63;;
71196;SDS011;58918;51.652;4.864;2024-01-30T11:10:55;3.95;;;1.40;;
71196;SDS011;58918;51.652;4.864;2024-01-30T11:13:28;3.28;;;1.30;;
71196;SDS011;58918;51.652;4.864;2024-01-30T11:16:00;4.25;;;1.40;;
71196;SDS011;58918;51.652;4.864;2024-01-30T11:18:30;3.63;;;1.40;;
71196;SDS011;58918;51.652;4.864;2024-01-30T11:20:58;3.72;;;1.52;;
71196;SDS011;58918;51.652;4.864;2024-01-30T11:23:28;3.05;;;1.30;;
71196;SDS011;58918;51.652;4.864;2024-01-30T11:25:56;3.75;;;1.58;;
71196;SDS011;58918;51.652;4.864;2024-01-30T11:28:24;3.58;;;1.58;;
71196;SDS011;58918;51.652;4.864;2024-01-30T11:30:51;3.53;;;1.45;;
71196;SDS011;58918;51.652;4.864;2024-01-30T11:33:28;4.03;;;1.23;;
71196;SDS011;58918;51.652;4.864;2024-01-30T11:36:00;4.70;;;1.58;;
71196;SDS011;58918;51.652;4.864;2024-01-30T11:38:28;3.65;;;1.38;;
71196;SDS011;58918;51.652;4.864;2024-01-30T11:40:59;4.43;;;1.60;;
71196;SDS011;58918;51.652;4.864;2024-01-30T11:43:27;4.45;;;1.30;;
71196;SDS011;58918;51.652;4.864;2024-01-30T11:45:54;4.05;;;1.50;;
71196;SDS011;58918;51.652;4.864;2024-01-30T11:48:22;5.25;;;1.60;;
71196;SDS011;58918;51.652;4.864;2024-01-30T11:50:50;3.70;;;1.40;;
71196;SDS011;58918;51.652;4.864;2024-01-30T11:53:18;4.85;;;1.52;;
71196;SDS011;58918;51.652;4.864;2024-01-30T11:55:51;3.35;;;1.35;;
71196;SDS011;58918;51.652;4.864;2024-01-30T11:58:19;3.35;;;1.33;;
71196;SDS011;58918;51.652;4.864;2024-01-30T12:00:55;4.75;;;1.30;;
71196;SDS011;58918;51.652;4.864;2024-01-30T12:03:23;4.63;;;1.48;;
71196;SDS011;58918;51.652;4.864;2024-01-30T12:05:56;3.72;;;1.40;;
71196;SDS011;58918;51.652;4.864;2024-01-30T12:08:27;3.17;;;1.42;;
71196;SDS011;58918;51.652;4.864;2024-01-30T12:10:55;3.30;;;1.33;;
71196;SDS011;58918;51.652;4.864;2024-01-30T12:13:23;3.67;;;1.40;;
71196;SDS011;58918;51.652;4.864;2024-01-30T12:18:19;4.22;;;1.20;;
71196;SDS011;58918;51.652;4.864;2024-01-30T12:20:56;3.42;;;1.38;;
71196;SDS011;58918;51.652;4.864;2024-01-30T12:23:24;3.92;;;1.23;;
71196;SDS011;58918;51.652;4.864;2024-01-30T12:25:52;3.47;;;1.33;;
71196;SDS011;58918;51.652;4.864;2024-01-30T12:28:20;2.95;;;1.25;;
71196;SDS011;58918;51.652;4.864;2024-01-30T12:30:47;3.88;;;1.30;;
71196;SDS011;58918;51.652;4.864;2024-01-30T12:33:17;4.28;;;1.02;;
71196;SDS011;58918;51.652;4.864;2024-01-30T12:35:45;4.22;;;1.10;;
71196;SDS011;58918;51.652;4.864;2024-01-30T12:38:28;4.00;;;1.10;;
71196;SDS011;58918;51.652;4.864;2024-01-30T12:41:19;4.07;;;1.20;;
71196;SDS011;58918;51.652;4.864;2024-01-30T12:43:47;4.18;;;1.33;;
71196;SDS011;58918;51.652;4.864;2024-01-30T12:46:16;3.75;;;1.40;;
71196;SDS011;58918;51.652;4.864;2024-01-30T12:48:44;2.38;;;0.93;;
71196;SDS011;58918;51.652;4.864;2024-01-30T12:51:11;4.97;;;1.48;;
71196;SDS011;58918;51.652;4.864;2024-01-30T12:53:41;3.80;;;1.55;;
71196;SDS011;58918;51.652;4.864;2024-01-30T12:56:09;4.55;;;1.25;;
71196;SDS011;58918;51.652;4.864;2024-01-30T12:58:36;3.97;;;1.15;;
71196;SDS011;58918;51.652;4.864;2024-01-30T13:01:04;3.13;;;1.08;;
71196;SDS011;58918;51.652;4.864;2024-01-30T13:03:31;3.00;;;1.00;;
71196;SDS011;58918;51.652;4.864;2024-01-30T13:06:00;4.07;;;1.00;;
71196;SDS011;58918;51.652;4.864;2024-01-30T13:08:30;2.72;;;0.90;;
71196;SDS011;58918;51.652;4.864;2024-01-30T13:10:57;3.88;;;1.00;;
71196;SDS011;58918;51.652;4.864;2024-01-30T13:13:24;3.65;;;1.08;;
71196;SDS011;58918;51.652;4.864;2024-01-30T13:15:52;4.32;;;1.40;;
71196;SDS011;58918;51.652;4.864;2024-01-30T13:18:19;2.95;;;1.08;;
71196;SDS011;58918;51.652;4.864;2024-01-30T13:20:47;2.63;;;0.90;;
71196;SDS011;58918;51.652;4.864;2024-01-30T13:23:14;4.28;;;1.00;;
71196;SDS011;58918;51.652;4.864;2024-01-30T13:25:41;2.70;;;0.90;;
71196;SDS011;58918;51.652;4.864;2024-01-30T13:28:09;4.35;;;1.30;;
71196;SDS011;58918;51.652;4.864;2024-01-30T13:30:36;2.95;;;1.00;;
71196;SDS011;58918;51.652;4.864;2024-01-30T13:33:04;3.38;;;1.08;;
71196;SDS011;58918;51.652;4.864;2024-01-30T13:35:31;2.13;;;0.85;;
71196;SDS011;58918;51.652;4.864;2024-01-30T13:37:59;2.83;;;1.00;;
71196;SDS011;58918;51.652;4.864;2024-01-30T13:40:26;2.60;;;1.00;;
71196;SDS011;58918;51.652;4.864;2024-01-30T13:42:53;3.60;;;1.40;;
71196;SDS011;58918;51.652;4.864;2024-01-30T13:45:20;4.45;;;1.33;;
71196;SDS011;58918;51.652;4.864;2024-01-30T13:47:49;4.85;;;1.30;;
71196;SDS011;58918;51.652;4.864;2024-01-30T13:50:17;2.75;;;1.00;;
71196;SDS011;58918;51.652;4.864;2024-01-30T13:52:45;3.85;;;1.00;;
71196;SDS011;58918;51.652;4.864;2024-01-30T13:55:13;2.70;;;0.95;;
71196;SDS011;58918;51.652;4.864;2024-01-30T13:57:41;3.33;;;1.13;;
71196;SDS011;58918;51.652;4.864;2024-01-30T14:00:09;3.90;;;1.17;;
71196;SDS011;58918;51.652;4.864;2024-01-30T14:02:40;4.47;;;1.23;;
71196;SDS011;58918;51.652;4.864;2024-01-30T14:05:18;3.47;;;1.08;;
71196;SDS011;58918;51.652;4.864;2024-01-30T14:08:03;2.90;;;0.90;;
71196;SDS011;58918;51.652;4.864;2024-01-30T14:10:40;3.15;;;1.13;;
71196;SDS011;58918;51.652;4.864;2024-01-30T14:16:05;3.35;;;1.20;;
71196;SDS011;58918;51.652;4.864;2024-01-30T14:18:33;2.72;;;0.80;;
71196;SDS011;58918;51.652;4.864;2024-01-30T14:21:01;3.63;;;0.90;;
71196;SDS011;58918;51.652;4.864;2024-01-30T14:23:29;3.20;;;0.80;;
71196;SDS011;58918;51.652;4.864;2024-01-30T14:25:58;2.78;;;1.00;;
71196;SDS011;58918;51.652;4.864;2024-01-30T14:28:25;2.35;;;0.70;;
71196;SDS011;58918;51.652;4.864;2024-01-30T14:30:52;3.30;;;1.20;;
71196;SDS011;58918;51.652;4.864;2024-01-30T14:33:20;2.97;;;1.02;;
71196;SDS011;58918;51.652;4.864;2024-01-30T14:35:47;3.05;;;1.08;;
71196;SDS011;58918;51.652;4.864;2024-01-30T14:38:14;3.55;;;0.90;;
71196;SDS011;58918;51.652;4.864;2024-01-30T14:40:42;3.00;;;1.02;;
71196;SDS011;58918;51.652;4.864;2024-01-30T14:43:09;2.80;;;1.00;;
71196;SDS011;58918;51.652;4.864;2024-01-30T14:45:36;3.47;;;1.00;;
71196;SDS011;58918;51.652;4.864;2024-01-30T14:48:10;4.63;;;1.00;;
71196;SDS011;58918;51.652;4.864;2024-01-30T14:50:37;3.00;;;0.80;;
71196;SDS011;58918;51.652;4.864;2024-01-30T14:53:05;2.10;;;0.82;;
71196;SDS011;58918;51.652;4.864;2024-01-30T14:55:33;1.65;;;0.70;;
71196;SDS011;58918;51.652;4.864;2024-01-30T14:58:00;2.92;;;1.08;;
71196;SDS011;58918;51.652;4.864;2024-01-30T15:00:28;2.85;;;0.90;;
71196;SDS011;58918;51.652;4.864;2024-01-30T15:02:56;4.00;;;1.08;;
71196;SDS011;58918;51.652;4.864;2024-01-30T15:05:23;2.70;;;0.80;;